createdAt,value
2019-01-15T00:01:51.053Z,89.71
2019-01-15T00:06:56.435Z,89.98
2019-01-15T00:12:07.849Z,90.63
2019-01-15T00:17:09.013Z,90.58
2019-01-15T00:22:14.196Z,91.00
2019-01-15T00:27:19.349Z,90.99
2019-01-15T00:32:25.726Z,91.00
2019-01-15T00:37:31.144Z,90.86
2019-01-15T00:42:36.205Z,90.82
2019-01-15T00:47:41.607Z,90.57
2019-01-15T00:52:46.581Z,90.42
2019-01-15T00:57:51.594Z,90.69
2019-01-15T01:02:56.603Z,90.41
2019-01-15T01:08:01.862Z,90.38
2019-01-15T01:13:07.078Z,90.03
2019-01-15T01:18:12.369Z,90.21
2019-01-15T01:23:17.477Z,90.39
2019-01-15T01:28:22.512Z,90.65
2019-01-15T01:33:27.521Z,90.38
2019-01-15T01:38:32.584Z,90.44
2019-01-15T01:43:37.629Z,90.29
2019-01-15T01:48:42.660Z,89.98
2019-01-15T01:53:47.635Z,90.06
2019-01-15T01:58:52.650Z,89.71
2019-01-15T02:03:57.707Z,90.33
2019-01-15T02:09:03.329Z,89.84
2019-01-15T02:14:09.352Z,89.74
2019-01-15T02:19:22.293Z,89.90
2019-01-15T02:24:27.671Z,90.13
2019-01-15T02:29:32.686Z,90.09
2019-01-15T02:34:37.760Z,90.06
2019-01-15T02:39:42.838Z,90.05
2019-01-15T02:44:48.977Z,90.43
2019-01-15T02:49:54.028Z,90.25
2019-01-15T02:54:59.137Z,90.50
2019-01-15T03:00:05.855Z,90.83
2019-01-15T03:05:11.425Z,90.75
2019-01-15T03:10:17.912Z,90.44
2019-01-15T03:15:24.225Z,90.80
2019-01-15T03:20:30.474Z,90.61
2019-01-15T03:25:35.495Z,90.59
2019-01-15T03:30:40.502Z,90.38
2019-01-15T03:35:45.518Z,90.44
2019-01-15T03:40:50.707Z,90.16
2019-01-15T03:46:03.965Z,89.93
2019-01-15T03:51:03.378Z,89.84
2019-01-15T03:56:08.458Z,89.83
2019-01-15T04:01:13.454Z,89.31
2019-01-15T04:06:18.495Z,89.36
2019-01-15T04:11:23.656Z,89.21
2019-01-15T04:16:28.697Z,89.34
2019-01-15T04:21:33.798Z,89.32
2019-01-15T04:26:40.821Z,89.33
2019-01-15T04:31:45.776Z,89.23
2019-01-15T04:36:50.796Z,89.58
2019-01-15T04:41:55.838Z,89.21
2019-01-15T04:47:01.265Z,89.12
2019-01-15T04:52:07.013Z,89.21
2019-01-15T04:57:12.169Z,89.27
2019-01-15T05:02:17.296Z,89.22
2019-01-15T05:07:22.310Z,89.49
2019-01-15T05:12:27.414Z,89.35
2019-01-15T05:17:32.557Z,89.39
2019-01-15T05:22:37.644Z,89.14
2019-01-15T05:27:42.695Z,88.68
2019-01-15T05:32:47.769Z,88.55
2019-01-15T05:37:53.068Z,88.74
2019-01-15T05:42:58.181Z,88.68
2019-01-15T05:48:09.149Z,88.39
2019-01-15T05:53:14.570Z,88.55
2019-01-15T05:58:19.698Z,88.43
2019-01-15T06:03:24.766Z,88.26
2019-01-15T06:08:30.111Z,88.74
2019-01-15T06:13:35.155Z,88.83
2019-01-15T06:18:40.161Z,88.55
2019-01-15T06:23:45.550Z,88.29
2019-01-15T06:28:51.152Z,88.50
2019-01-15T06:34:03.379Z,88.52
2019-01-15T06:39:10.210Z,88.77
2019-01-15T06:44:16.124Z,88.44
2019-01-15T06:49:26.689Z,88.61
2019-01-15T06:54:34.041Z,88.55
2019-01-15T06:59:45.552Z,88.75
2019-01-15T07:04:50.703Z,88.40
2019-01-15T07:09:56.024Z,88.90
2019-01-15T07:15:01.599Z,88.41
2019-01-15T07:20:15.443Z,88.12
2019-01-15T07:25:21.258Z,87.30
2019-01-15T07:30:42.029Z,86.53
2019-01-15T07:35:47.435Z,85.89
2019-01-15T07:40:52.796Z,85.75
2019-01-15T07:45:58.090Z,85.36
2019-01-15T07:51:03.798Z,84.40
2019-01-15T07:56:08.916Z,84.22
2019-01-15T08:01:19.626Z,84.34
2019-01-15T08:06:31.646Z,84.17
2019-01-15T08:12:10.400Z,84.11
2019-01-15T08:17:17.376Z,83.62
2019-01-15T08:22:22.920Z,82.99
2019-01-15T08:27:28.064Z,82.94
2019-01-15T08:32:33.242Z,82.89
2019-01-15T08:37:38.336Z,81.80
2019-01-15T08:42:43.531Z,82.20
2019-01-15T08:47:53.471Z,81.55
2019-01-15T08:52:58.760Z,81.37
2019-01-15T08:58:03.887Z,81.73
2019-01-15T09:03:09.293Z,82.08
2019-01-15T09:08:15.933Z,82.07
2019-01-15T09:13:21.135Z,82.10
2019-01-15T09:18:26.397Z,82.41
2019-01-15T09:23:34.391Z,82.21
2019-01-15T09:28:39.421Z,83.01
2019-01-15T09:33:44.896Z,83.68
2019-01-15T09:38:50.096Z,87.27
2019-01-15T09:43:55.374Z,89.23
2019-01-15T09:49:02.819Z,89.54
2019-01-15T09:54:10.294Z,89.00
2019-01-15T09:59:15.384Z,87.98
2019-01-15T10:04:20.476Z,86.74
2019-01-15T10:09:25.654Z,85.70
2019-01-15T10:14:40.995Z,85.02
2019-01-15T10:19:41.742Z,85.02
2019-01-15T10:24:47.655Z,84.89
2019-01-15T10:29:59.201Z,84.85
2019-01-15T10:35:06.795Z,84.87
2019-01-15T10:40:13.814Z,85.52
2019-01-15T10:45:18.922Z,84.85
2019-01-15T10:50:25.286Z,84.93
2019-01-15T10:55:30.614Z,84.85
2019-01-15T11:00:35.849Z,84.76
2019-01-15T11:05:46.022Z,84.42
2019-01-15T11:10:51.376Z,84.59
2019-01-15T11:16:11.980Z,84.60
2019-01-15T11:21:17.560Z,84.78
2019-01-15T11:26:24.407Z,85.18
2019-01-15T11:31:29.797Z,85.59
2019-01-15T11:36:35.007Z,85.98
2019-01-15T11:41:52.550Z,87.34
2019-01-15T11:46:58.073Z,87.83
2019-01-15T11:52:03.639Z,87.91
2019-01-15T11:57:08.752Z,87.49
2019-01-15T12:02:32.080Z,87.57
2019-01-15T12:07:56.547Z,87.88
2019-01-15T12:13:27.852Z,87.27
2019-01-15T12:18:54.486Z,87.47
2019-01-15T12:24:23.970Z,87.46
2019-01-15T12:29:53.186Z,87.90
2019-01-15T12:35:25.140Z,88.21
2019-01-15T12:40:44.125Z,88.61
2019-01-15T12:46:08.808Z,88.94
2019-01-15T12:51:34.483Z,88.56
2019-01-15T12:57:05.518Z,88.55
2019-01-15T13:02:31.432Z,88.97
2019-01-15T13:07:55.964Z,89.47
2019-01-15T13:13:21.095Z,90.00
2019-01-15T13:18:44.112Z,89.75
2019-01-15T13:24:12.371Z,89.68
2019-01-15T13:29:45.451Z,90.13
2019-01-15T13:35:09.573Z,89.58
2019-01-15T13:40:30.955Z,89.36
2019-01-15T13:46:08.377Z,89.18
2019-01-15T13:51:45.788Z,88.81
2019-01-15T13:57:28.127Z,88.69
2019-01-15T14:02:58.416Z,88.23
2019-01-15T14:08:38.032Z,87.52
2019-01-15T14:14:00.807Z,88.00
2019-01-15T14:19:23.917Z,87.48
2019-01-15T14:24:58.295Z,87.33
2019-01-15T14:30:23.407Z,87.77
2019-01-15T14:35:58.576Z,87.23
2019-01-15T14:41:45.502Z,87.08
2019-01-15T14:47:25.235Z,87.40
2019-01-15T14:53:10.385Z,87.52
2019-01-15T14:58:40.526Z,87.86
2019-01-15T15:04:16.108Z,87.51
2019-01-15T15:09:39.182Z,87.29
2019-01-15T15:15:05.842Z,87.23
2019-01-15T15:20:43.112Z,87.54
2019-01-15T15:26:10.349Z,87.84
2019-01-15T15:31:36.906Z,88.42
2019-01-15T15:36:54.766Z,88.17
2019-01-15T15:42:13.796Z,88.37
2019-01-15T15:47:42.058Z,88.53
2019-01-15T15:53:11.009Z,88.67
2019-01-15T15:58:47.298Z,88.50
2019-01-15T16:04:14.515Z,88.34
2019-01-15T16:09:59.762Z,88.71
2019-01-15T16:15:14.124Z,89.65
2019-01-15T16:20:46.513Z,89.08
2019-01-15T16:26:09.935Z,89.27
2019-01-15T16:31:46.534Z,89.31
2019-01-15T16:37:25.653Z,89.27
2019-01-15T16:42:50.610Z,88.78
2019-01-15T16:48:14.647Z,88.69
2019-01-15T16:53:39.382Z,88.53
2019-01-15T16:59:02.762Z,88.48
2019-01-15T17:04:27.487Z,88.26
2019-01-15T17:09:55.740Z,88.12
2019-01-15T17:15:25.981Z,88.00
2019-01-15T17:20:57.780Z,87.99
2019-01-15T17:26:14.457Z,87.70
2019-01-15T17:31:38.595Z,87.92
2019-01-15T17:36:56.598Z,88.33
2019-01-15T17:42:18.358Z,88.25
2019-01-15T17:47:41.705Z,88.27
2019-01-15T17:53:09.290Z,88.21
2019-01-15T17:58:24.581Z,88.04
2019-01-15T18:03:53.681Z,88.50
2019-01-15T18:09:26.200Z,88.37
2019-01-15T18:15:02.553Z,88.36
2019-01-15T18:20:25.617Z,88.49
2019-01-15T18:26:08.078Z,88.21
2019-01-15T18:31:30.828Z,88.41
2019-01-15T18:37:03.808Z,88.25
2019-01-15T18:42:35.768Z,88.37
2019-01-15T18:47:59.370Z,87.82
2019-01-15T18:59:04.316Z,87.58
2019-01-15T19:04:27.363Z,87.31
2019-01-15T19:09:56.918Z,87.42
2019-01-15T19:15:34.202Z,87.54
2019-01-15T19:21:05.138Z,87.43
2019-01-15T19:26:37.751Z,87.70
2019-01-15T19:32:37.976Z,87.54
2019-01-15T19:38:20.691Z,87.48
2019-01-15T19:43:47.624Z,87.12
2019-01-15T19:49:20.378Z,87.07
2019-01-15T19:54:54.722Z,86.77
2019-01-15T20:00:19.261Z,86.89
2019-01-15T20:05:42.240Z,86.74
2019-01-15T20:11:12.809Z,86.84
2019-01-15T20:17:02.089Z,87.22
2019-01-15T20:22:39.167Z,86.80
2019-01-15T20:28:16.094Z,86.86
2019-01-15T20:33:47.073Z,87.09
2019-01-15T20:39:16.415Z,87.23
2019-01-15T20:44:41.221Z,87.14
2019-01-15T20:50:08.294Z,87.70
2019-01-15T20:55:35.490Z,87.49
2019-01-15T21:01:14.485Z,87.09
2019-01-15T21:06:37.724Z,86.93
2019-01-15T21:12:11.606Z,87.08
2019-01-15T21:17:39.550Z,87.59
2019-01-15T21:23:09.905Z,87.73
2019-01-15T21:28:37.356Z,88.00
2019-01-15T21:34:02.482Z,88.12
2019-01-15T21:39:32.887Z,88.47
2019-01-15T21:44:56.663Z,89.06
2019-01-15T21:50:21.532Z,90.05
2019-01-15T21:55:57.807Z,90.05
2019-01-15T22:01:30.750Z,90.60
2019-01-15T22:06:55.184Z,90.88
2019-01-15T22:12:18.218Z,91.28
2019-01-15T22:17:36.882Z,91.13
2019-01-15T22:23:01.206Z,91.50
2019-01-15T22:28:31.110Z,92.15
2019-01-15T22:33:58.122Z,92.87
2019-01-15T22:39:14.983Z,92.50
2019-01-15T22:44:44.136Z,92.64
2019-01-15T22:50:26.193Z,92.08
2019-01-15T22:56:02.758Z,91.51
2019-01-15T23:01:24.965Z,91.39
2019-01-15T23:06:48.084Z,91.19
2019-01-15T23:12:05.647Z,90.65
2019-01-15T23:17:28.720Z,90.33
2019-01-15T23:23:08.073Z,90.87
2019-01-15T23:28:31.044Z,90.68
2019-01-15T23:33:54.929Z,90.86
2019-01-15T23:39:24.761Z,90.41
2019-01-15T23:50:35.749Z,90.90
2019-01-15T23:55:59.772Z,90.89
